createdAt,value
2018-03-24T00:00:44.391Z,16.79
2018-03-24T00:03:10.243Z,16.78
2018-03-24T00:05:36.071Z,16.66
2018-03-24T00:08:01.917Z,16.83
2018-03-24T00:10:28.588Z,16.85
2018-03-24T00:12:54.409Z,16.82
2018-03-24T00:15:20.219Z,16.82
2018-03-24T00:17:46.046Z,16.85
2018-03-24T00:20:11.898Z,16.73
2018-03-24T00:22:37.715Z,16.82
2018-03-24T00:25:03.576Z,16.74
2018-03-24T00:27:29.394Z,16.69
2018-03-24T00:29:55.207Z,16.76
2018-03-24T00:32:21.020Z,16.73
2018-03-24T00:34:46.867Z,16.77
2018-03-24T00:37:12.674Z,16.78
2018-03-24T00:39:38.535Z,16.79
2018-03-24T00:42:04.352Z,16.79
2018-03-24T00:44:30.186Z,16.78
2018-03-24T00:46:56.068Z,16.74
2018-03-24T00:49:21.877Z,16.71
2018-03-24T00:51:47.694Z,16.71
2018-03-24T00:54:13.519Z,16.74
2018-03-24T00:56:39.353Z,16.82
2018-03-24T00:59:05.172Z,16.83
2018-03-24T01:01:31.018Z,16.76
2018-03-24T01:03:56.834Z,16.77
2018-03-24T01:06:22.652Z,16.95
2018-03-24T01:08:48.483Z,16.90
2018-03-24T01:11:14.296Z,16.89
2018-03-24T01:13:40.114Z,17.01
2018-03-24T01:16:05.935Z,16.79
2018-03-24T01:18:32.591Z,16.87
2018-03-24T01:20:59.303Z,16.88
2018-03-24T01:23:25.117Z,16.90
2018-03-24T01:25:51.871Z,16.97
2018-03-24T01:28:18.672Z,16.85
2018-03-24T01:30:45.546Z,16.91
2018-03-24T01:33:11.399Z,16.79
2018-03-24T01:35:37.220Z,16.84
2018-03-24T01:38:03.074Z,16.93
2018-03-24T01:40:28.881Z,16.88
2018-03-24T01:42:54.726Z,16.96
2018-03-24T01:45:20.541Z,16.93
2018-03-24T01:47:46.421Z,16.85
2018-03-24T01:50:12.244Z,16.81
2018-03-24T01:52:38.088Z,16.78
2018-03-24T01:55:03.935Z,16.79
2018-03-24T01:57:29.743Z,16.85
2018-03-24T01:59:55.546Z,16.81
2018-03-24T02:02:21.351Z,16.95
2018-03-24T02:04:48.035Z,16.77
2018-03-24T02:07:14.667Z,16.72
2018-03-24T02:09:41.497Z,16.78
2018-03-24T02:12:07.319Z,16.96
2018-03-24T02:14:33.130Z,16.97
2018-03-24T02:16:58.946Z,16.79
2018-03-24T02:19:24.762Z,16.90
2018-03-24T02:21:50.603Z,16.76
2018-03-24T02:24:17.208Z,16.79
2018-03-24T02:26:43.031Z,16.70
2018-03-24T02:29:08.837Z,16.69
2018-03-24T02:31:34.654Z,16.72
2018-03-24T02:34:00.474Z,16.64
2018-03-24T02:36:26.293Z,16.69
2018-03-24T02:38:52.105Z,16.73
2018-03-24T02:41:18.901Z,16.77
2018-03-24T02:43:45.642Z,16.74
2018-03-24T02:46:12.373Z,16.88
2018-03-24T02:48:38.187Z,16.72
2018-03-24T02:51:04.011Z,16.83
2018-03-24T02:53:29.827Z,16.69
2018-03-24T02:55:55.638Z,16.62
2018-03-24T02:58:21.510Z,16.82
2018-03-24T03:00:47.300Z,16.81
2018-03-24T03:03:13.125Z,16.88
2018-03-24T03:05:38.970Z,16.85
2018-03-24T03:08:04.798Z,16.80
2018-03-24T03:10:30.671Z,16.70
2018-03-24T03:12:57.447Z,16.77
2018-03-24T03:15:23.272Z,16.77
2018-03-24T03:17:49.123Z,16.78
2018-03-24T03:20:14.991Z,16.82
2018-03-24T03:22:40.806Z,16.84
2018-03-24T03:25:06.623Z,16.77
2018-03-24T03:27:32.445Z,16.77
2018-03-24T03:29:58.260Z,16.73
2018-03-24T03:32:24.087Z,16.80
2018-03-24T03:34:49.920Z,16.80
2018-03-24T03:37:15.737Z,16.86
2018-03-24T03:39:41.600Z,16.80
2018-03-24T03:42:07.392Z,16.70
2018-03-24T03:44:33.215Z,16.86
2018-03-24T03:46:59.078Z,16.76
2018-03-24T03:49:24.910Z,16.73
2018-03-24T03:51:50.722Z,16.78
2018-03-24T03:54:16.541Z,16.81
2018-03-24T03:56:42.355Z,16.85
2018-03-24T03:59:08.171Z,16.78
2018-03-24T04:01:33.982Z,16.76
2018-03-24T04:03:59.797Z,16.71
2018-03-24T04:06:25.606Z,16.71
2018-03-24T04:08:51.466Z,16.68
2018-03-24T04:11:17.286Z,16.83
2018-03-24T04:13:44.132Z,16.79
2018-03-24T04:16:09.941Z,16.67
2018-03-24T04:18:35.750Z,16.71
2018-03-24T04:21:01.564Z,16.73
2018-03-24T04:23:27.547Z,16.70
2018-03-24T04:25:54.401Z,16.71
2018-03-24T04:28:21.184Z,16.71
2018-03-24T04:30:47.939Z,16.74
2018-03-24T04:33:14.752Z,16.57
2018-03-24T04:35:40.562Z,16.54
2018-03-24T04:38:06.390Z,16.76
2018-03-24T04:40:33.048Z,16.80
2018-03-24T04:42:58.862Z,16.76
2018-03-24T04:45:24.722Z,16.80
2018-03-24T04:47:50.550Z,16.61
2018-03-24T04:50:16.371Z,16.68
2018-03-24T04:52:42.219Z,16.57
2018-03-24T04:55:08.952Z,16.70
2018-03-24T04:57:35.754Z,16.69
2018-03-24T05:00:01.605Z,16.62
2018-03-24T05:02:27.418Z,16.50
2018-03-24T05:04:54.094Z,16.52
2018-03-24T05:07:20.893Z,16.61
2018-03-24T05:09:46.714Z,16.69
2018-03-24T05:12:12.523Z,16.72
2018-03-24T05:14:38.340Z,16.76
2018-03-24T05:17:05.148Z,16.61
2018-03-24T05:19:30.968Z,16.65
2018-03-24T05:21:57.802Z,16.73
2018-03-24T05:24:23.627Z,16.64
2018-03-24T05:26:49.449Z,16.71
2018-03-24T05:29:15.266Z,16.94
2018-03-24T05:31:42.077Z,16.90
2018-03-24T05:34:07.959Z,16.83
2018-03-24T05:36:33.778Z,16.80
2018-03-24T05:39:00.503Z,16.75
2018-03-24T05:41:26.324Z,16.75
2018-03-24T05:43:52.144Z,16.81
2018-03-24T05:46:17.971Z,16.80
2018-03-24T05:48:44.750Z,16.87
2018-03-24T05:51:11.327Z,16.84
2018-03-24T05:53:38.034Z,16.83
2018-03-24T05:56:04.790Z,16.87
2018-03-24T05:58:31.582Z,16.74
2018-03-24T06:00:58.394Z,16.82
2018-03-24T06:03:24.216Z,16.69
2018-03-24T06:05:50.026Z,16.88
2018-03-24T06:08:15.846Z,16.76
2018-03-24T06:10:42.456Z,16.77
2018-03-24T06:13:08.276Z,16.71
2018-03-24T06:15:34.197Z,16.63
2018-03-24T06:18:00.032Z,16.70
2018-03-24T06:20:25.852Z,16.79
2018-03-24T06:22:51.715Z,16.74
2018-03-24T06:25:17.542Z,16.72
2018-03-24T06:27:43.359Z,16.73
2018-03-24T06:30:10.027Z,16.67
2018-03-24T06:32:35.863Z,16.61
2018-03-24T06:35:01.697Z,16.81
2018-03-24T06:37:27.526Z,16.72
2018-03-24T06:39:53.387Z,16.89
2018-03-24T06:42:20.107Z,16.90
2018-03-24T06:44:45.967Z,16.77
2018-03-24T06:47:11.782Z,16.87
2018-03-24T06:49:37.606Z,16.85
2018-03-24T06:52:03.467Z,16.84
2018-03-24T06:54:29.327Z,16.89
2018-03-24T06:56:55.211Z,17.05
2018-03-24T06:59:21.046Z,17.10
2018-03-24T07:01:46.908Z,16.97
2018-03-24T07:04:13.654Z,16.95
2018-03-24T07:06:40.492Z,16.97
2018-03-24T07:09:07.220Z,17.01
2018-03-24T07:11:33.061Z,16.89
2018-03-24T07:13:59.717Z,16.84
2018-03-24T07:16:25.579Z,16.94
2018-03-24T07:18:51.432Z,16.79
2018-03-24T07:21:17.294Z,16.81
2018-03-24T07:23:43.159Z,16.84
2018-03-24T07:26:09.030Z,16.84
2018-03-24T07:28:35.828Z,16.83
2018-03-24T07:31:03.694Z,16.82
2018-03-24T07:33:30.402Z,16.79
2018-03-24T07:35:56.228Z,16.71
2018-03-24T07:38:22.085Z,16.85
2018-03-24T07:40:47.909Z,16.83
2018-03-24T07:43:13.762Z,16.91
2018-03-24T07:45:40.308Z,16.82
2018-03-24T07:48:06.281Z,16.92
2018-03-24T07:50:32.134Z,16.75
2018-03-24T07:52:58.931Z,16.84
2018-03-24T07:55:24.734Z,16.79
2018-03-24T07:57:50.554Z,16.89
2018-03-24T08:00:16.749Z,16.92
2018-03-24T08:02:42.827Z,16.76
2018-03-24T08:05:08.674Z,16.77
2018-03-24T08:07:35.411Z,16.79
2018-03-24T08:10:01.220Z,16.77
2018-03-24T08:12:27.078Z,16.87
2018-03-24T08:14:53.083Z,16.94
2018-03-24T08:17:18.900Z,16.96
2018-03-24T08:19:44.782Z,16.96
2018-03-24T08:22:11.281Z,17.06
2018-03-24T08:24:38.378Z,17.04
2018-03-24T08:27:05.763Z,17.08
2018-03-24T08:29:32.403Z,17.08
2018-03-24T08:31:58.729Z,16.97
2018-03-24T08:34:25.494Z,16.90
2018-03-24T08:36:55.025Z,16.94
2018-03-24T08:39:21.266Z,16.67
2018-03-24T08:41:47.119Z,16.58
2018-03-24T08:44:12.975Z,16.76
2018-03-24T08:46:39.674Z,16.72
2018-03-24T08:49:05.531Z,16.58
2018-03-24T08:51:31.346Z,16.77
2018-03-24T08:53:58.006Z,16.65
2018-03-24T08:56:23.863Z,16.34
2018-03-24T08:58:49.691Z,15.97
2018-03-24T09:01:16.486Z,16.16
2018-03-24T09:03:43.285Z,15.91
2018-03-24T09:06:09.148Z,15.96
2018-03-24T09:08:35.921Z,15.94
2018-03-24T09:11:02.762Z,15.79
2018-03-24T09:13:29.514Z,15.93
2018-03-24T09:15:55.349Z,16.13
2018-03-24T09:18:21.166Z,16.07
2018-03-24T09:20:47.057Z,16.03
2018-03-24T09:23:12.874Z,15.97
2018-03-24T09:25:38.722Z,16.21
2018-03-24T09:28:04.562Z,16.34
2018-03-24T09:30:30.383Z,16.38
2018-03-24T09:32:56.203Z,16.53
2018-03-24T09:35:22.025Z,16.71
2018-03-24T09:37:47.885Z,16.74
2018-03-24T09:40:13.713Z,16.66
2018-03-24T09:42:39.531Z,16.80
2018-03-24T09:45:05.348Z,16.71
2018-03-24T09:47:31.212Z,16.54
2018-03-24T09:49:57.047Z,16.83
2018-03-24T09:52:23.817Z,16.77
2018-03-24T09:54:49.630Z,16.80
2018-03-24T09:57:15.442Z,16.77
2018-03-24T09:59:41.263Z,16.78
2018-03-24T10:02:07.086Z,16.72
2018-03-24T10:04:33.112Z,16.47
2018-03-24T10:06:59.044Z,16.31
2018-03-24T10:09:24.899Z,16.33
2018-03-24T10:11:50.716Z,16.37
2018-03-24T10:14:16.537Z,16.25
2018-03-24T10:16:42.390Z,16.39
2018-03-24T10:19:08.246Z,16.39
2018-03-24T10:24:30.322Z,16.06
2018-03-24T10:26:56.156Z,16.22
2018-03-24T10:29:22.987Z,16.26
2018-03-24T10:31:48.848Z,16.08
2018-03-24T10:34:14.677Z,16.03
2018-03-24T10:36:40.494Z,16.18
2018-03-24T10:39:06.303Z,16.23
2018-03-24T10:41:32.114Z,16.23
2018-03-24T10:43:57.964Z,16.21
2018-03-24T10:46:23.772Z,16.00
2018-03-24T10:48:49.583Z,16.19
2018-03-24T10:51:15.440Z,16.23
2018-03-24T10:53:41.301Z,16.23
2018-03-24T10:56:08.070Z,16.15
2018-03-24T10:58:33.913Z,15.98
2018-03-24T11:01:02.639Z,16.25
2018-03-24T11:03:28.503Z,16.14
2018-03-24T11:05:56.525Z,16.13
2018-03-24T11:08:22.546Z,16.30
2018-03-24T11:10:49.143Z,16.18
2018-03-24T11:13:14.987Z,16.42
2018-03-24T11:15:40.910Z,15.96
2018-03-24T11:18:06.738Z,16.22
2018-03-24T11:20:32.547Z,16.19
2018-03-24T11:22:58.384Z,16.16
2018-03-24T11:25:24.396Z,16.18
2018-03-24T11:27:50.231Z,16.29
2018-03-24T11:30:16.278Z,16.02
2018-03-24T11:32:42.111Z,16.32
2018-03-24T11:35:08.868Z,16.09
2018-03-24T11:37:34.683Z,16.15
2018-03-24T11:40:00.510Z,16.16
2018-03-24T11:42:27.147Z,16.36
2018-03-24T11:44:52.965Z,16.59
2018-03-24T11:47:18.786Z,16.63
2018-03-24T11:49:45.407Z,16.64
2018-03-24T11:52:11.247Z,16.81
2018-03-24T11:54:42.009Z,16.77
2018-03-24T11:57:07.817Z,16.86
2018-03-24T11:59:34.539Z,16.97
2018-03-24T12:02:00.847Z,17.06
2018-03-24T12:04:26.659Z,17.07
2018-03-24T12:06:52.464Z,17.11
2018-03-24T12:09:18.329Z,17.16
2018-03-24T12:11:44.140Z,17.11
2018-03-24T12:14:10.095Z,17.17
2018-03-24T12:16:35.925Z,17.16
2018-03-24T12:19:01.770Z,17.17
2018-03-24T12:21:27.622Z,17.10
2018-03-24T12:23:53.434Z,17.25
2018-03-24T12:26:19.283Z,17.17
2018-03-24T12:28:45.084Z,17.13
2018-03-24T12:31:10.924Z,17.23
2018-03-24T12:33:36.731Z,17.17
2018-03-24T12:36:03.373Z,17.06
2018-03-24T12:38:29.183Z,17.09
2018-03-24T12:40:54.996Z,17.26
2018-03-24T12:43:21.610Z,17.20
2018-03-24T12:45:47.586Z,17.10
2018-03-24T12:48:13.529Z,17.20
2018-03-24T12:50:39.347Z,17.22
2018-03-24T12:53:05.297Z,17.22
2018-03-24T12:55:31.151Z,17.27
2018-03-24T12:57:57.886Z,17.26
2018-03-24T13:00:24.780Z,17.38
2018-03-24T13:02:51.418Z,17.25
2018-03-24T13:05:17.227Z,17.25
2018-03-24T13:07:44.203Z,17.19
2018-03-24T13:10:10.084Z,17.28
2018-03-24T13:12:35.966Z,17.05
2018-03-24T13:15:01.963Z,17.04
2018-03-24T13:17:27.776Z,17.18
2018-03-24T13:19:53.672Z,17.10
2018-03-24T13:22:19.480Z,17.21
2018-03-24T13:24:46.304Z,17.16
2018-03-24T13:27:12.118Z,17.22
2018-03-24T13:29:38.186Z,17.31
2018-03-24T13:32:04.205Z,17.41
2018-03-24T13:34:30.223Z,17.38
2018-03-24T13:36:56.146Z,17.14
2018-03-24T13:39:21.964Z,17.31
2018-03-24T13:41:47.772Z,17.25
2018-03-24T13:44:13.579Z,17.20
2018-03-24T13:46:39.390Z,17.25
2018-03-24T13:49:05.254Z,17.27
2018-03-24T13:51:31.142Z,17.27
2018-03-24T13:53:56.954Z,17.34
2018-03-24T13:56:22.777Z,17.28
2018-03-24T13:58:48.603Z,17.44
2018-03-24T14:01:14.434Z,17.41
2018-03-24T14:03:40.327Z,17.38
2018-03-24T14:06:07.246Z,17.38
2018-03-24T14:08:34.002Z,17.37
2018-03-24T14:11:00.646Z,17.38
2018-03-24T14:13:26.500Z,17.35
2018-03-24T14:15:52.315Z,17.40
2018-03-24T14:18:19.162Z,17.36
2018-03-24T14:20:44.975Z,17.34
2018-03-24T14:23:10.798Z,17.42
2018-03-24T14:25:36.606Z,17.21
2018-03-24T14:28:02.414Z,17.34
2018-03-24T14:30:28.310Z,17.28
2018-03-24T14:32:54.121Z,17.39
2018-03-24T14:35:19.938Z,17.38
2018-03-24T14:37:45.775Z,17.32
2018-03-24T14:40:11.574Z,17.43
2018-03-24T14:42:37.383Z,17.47
2018-03-24T14:45:03.223Z,17.42
2018-03-24T14:47:29.026Z,17.49
2018-03-24T14:49:55.833Z,17.47
2018-03-24T14:52:21.638Z,17.39
2018-03-24T14:54:47.454Z,17.36
2018-03-24T14:57:13.305Z,17.44
2018-03-24T14:59:39.118Z,17.40
2018-03-24T15:02:04.970Z,17.40
2018-03-24T15:04:30.773Z,17.41
2018-03-24T15:06:56.585Z,17.38
2018-03-24T15:09:22.390Z,17.42
2018-03-24T15:11:49.206Z,17.53
2018-03-24T15:14:15.015Z,17.48
2018-03-24T15:16:41.630Z,17.33
2018-03-24T15:19:07.442Z,17.38
2018-03-24T15:21:33.291Z,17.38
2018-03-24T15:23:59.101Z,17.38
2018-03-24T15:26:24.906Z,17.27
2018-03-24T15:28:56.873Z,17.33
2018-03-24T15:31:29.922Z,17.44
2018-03-24T15:34:02.046Z,17.47
2018-03-24T15:36:34.077Z,17.39
2018-03-24T15:39:00.838Z,17.35
2018-03-24T15:41:26.643Z,17.39
2018-03-24T15:43:52.491Z,17.48
2018-03-24T15:46:18.299Z,17.47
2018-03-24T15:48:44.243Z,17.45
2018-03-24T15:51:10.062Z,17.46
2018-03-24T15:53:35.915Z,17.42
2018-03-24T15:56:01.749Z,17.39
2018-03-24T15:58:27.562Z,17.45
2018-03-24T16:00:54.282Z,17.47
2018-03-24T16:03:21.247Z,17.42
2018-03-24T16:05:47.054Z,17.45
2018-03-24T16:08:12.858Z,17.42
2018-03-24T16:10:39.604Z,17.36
2018-03-24T16:13:05.411Z,17.45
2018-03-24T16:15:31.222Z,17.47
2018-03-24T16:17:57.066Z,17.50
2018-03-24T16:20:23.814Z,17.44
2018-03-24T16:22:49.623Z,17.43
2018-03-24T16:25:15.442Z,17.44
2018-03-24T16:27:41.251Z,17.46
2018-03-24T16:30:07.063Z,17.53
2018-03-24T16:32:33.843Z,17.49
2018-03-24T16:34:59.654Z,17.44
2018-03-24T16:37:25.463Z,17.46
2018-03-24T16:39:51.284Z,17.44
2018-03-24T16:42:17.090Z,17.49
2018-03-24T16:44:42.938Z,17.47
2018-03-24T16:47:08.737Z,17.39
2018-03-24T16:49:35.498Z,17.52
2018-03-24T16:52:01.354Z,17.43
2018-03-24T16:54:27.165Z,17.48
2018-03-24T16:56:52.983Z,17.66
2018-03-24T16:59:18.829Z,17.53
2018-03-24T17:01:44.688Z,17.47
2018-03-24T17:04:10.555Z,17.44
2018-03-24T17:06:36.406Z,17.36
2018-03-24T17:09:03.062Z,17.47
2018-03-24T17:11:29.872Z,17.48
2018-03-24T17:13:55.734Z,17.58
2018-03-24T17:16:21.577Z,17.42
2018-03-24T17:18:47.387Z,17.40
2018-03-24T17:21:14.175Z,17.43
2018-03-24T17:23:40.007Z,17.41
2018-03-24T17:26:05.823Z,17.47
2018-03-24T17:28:31.639Z,17.42
2018-03-24T17:30:57.500Z,17.43
2018-03-24T17:33:23.324Z,17.33
2018-03-24T17:35:49.190Z,17.45
2018-03-24T17:38:15.115Z,17.52
2018-03-24T17:40:41.064Z,17.63
2018-03-24T17:43:06.881Z,17.55
2018-03-24T17:45:32.724Z,17.47
2018-03-24T17:47:58.534Z,17.45
2018-03-24T17:50:24.436Z,17.37
2018-03-24T17:52:50.244Z,17.23
2018-03-24T17:55:16.179Z,17.41
2018-03-24T17:57:42.994Z,17.36
2018-03-24T18:03:08.454Z,17.37
2018-03-24T18:05:34.353Z,17.39
2018-03-24T18:08:00.194Z,17.40
2018-03-24T18:10:26.010Z,17.34
2018-03-24T18:12:51.819Z,17.23
2018-03-24T18:15:17.660Z,17.24
2018-03-24T18:17:43.519Z,17.23
2018-03-24T18:20:10.285Z,17.23
2018-03-24T18:22:36.090Z,17.17
2018-03-24T18:25:01.984Z,17.23
2018-03-24T18:27:27.866Z,17.11
2018-03-24T18:29:53.726Z,17.26
2018-03-24T18:32:19.526Z,17.20
2018-03-24T18:34:45.336Z,17.23
2018-03-24T18:37:11.153Z,17.23
2018-03-24T18:39:37.094Z,17.17
2018-03-24T18:42:02.914Z,17.13
2018-03-24T18:44:28.807Z,17.13
2018-03-24T18:46:54.708Z,17.15
2018-03-24T18:49:20.516Z,17.08
2018-03-24T18:51:46.326Z,17.19
2018-03-24T18:54:12.180Z,17.15
2018-03-24T18:56:38.102Z,17.20
2018-03-24T18:59:03.916Z,17.14
2018-03-24T19:01:29.717Z,17.11
2018-03-24T19:03:56.578Z,17.10
2018-03-24T19:06:23.223Z,17.19
2018-03-24T19:08:50.043Z,17.14
2018-03-24T19:11:16.062Z,17.18
2018-03-24T19:13:41.910Z,17.31
2018-03-24T19:16:07.928Z,17.25
2018-03-24T19:18:33.755Z,17.25
2018-03-24T19:20:59.690Z,17.15
2018-03-24T19:23:25.496Z,17.21
2018-03-24T19:25:51.304Z,17.22
2018-03-24T19:28:17.114Z,17.13
2018-03-24T19:30:42.962Z,17.13
2018-03-24T19:33:08.846Z,17.23
2018-03-24T19:35:34.701Z,17.18
2018-03-24T19:38:00.510Z,17.16
2018-03-24T19:40:26.329Z,17.13
2018-03-24T19:42:52.164Z,17.23
2018-03-24T19:45:18.090Z,17.07
2018-03-24T19:47:44.054Z,17.20
2018-03-24T19:50:09.928Z,17.11
2018-03-24T19:52:35.776Z,17.09
2018-03-24T19:55:01.595Z,17.10
2018-03-24T19:57:28.467Z,17.14
2018-03-24T19:59:54.274Z,17.16
2018-03-24T20:02:20.098Z,17.01
2018-03-24T20:04:45.967Z,17.13
2018-03-24T20:07:12.700Z,17.11
2018-03-24T20:09:38.551Z,17.11
2018-03-24T20:12:04.367Z,16.88
2018-03-24T20:14:30.187Z,17.08
2018-03-24T20:16:56.031Z,17.16
2018-03-24T20:19:21.859Z,17.13
2018-03-24T20:21:48.663Z,17.08
2018-03-24T20:24:15.358Z,17.04
2018-03-24T20:26:41.238Z,17.01
2018-03-24T20:29:07.054Z,17.03
2018-03-24T20:31:32.869Z,17.11
2018-03-24T20:33:58.673Z,17.10
2018-03-24T20:36:24.489Z,17.12
2018-03-24T20:38:50.316Z,17.05
2018-03-24T20:41:16.127Z,17.01
2018-03-24T20:43:41.945Z,17.15
2018-03-24T20:46:07.751Z,17.10
2018-03-24T20:48:33.602Z,17.05
2018-03-24T20:51:00.267Z,17.06
2018-03-24T20:53:26.081Z,17.13
2018-03-24T20:55:51.932Z,17.14
2018-03-24T20:58:17.760Z,17.06
2018-03-24T21:00:43.650Z,17.11
2018-03-24T21:03:10.434Z,17.04
2018-03-24T21:05:36.279Z,16.92
2018-03-24T21:08:02.097Z,16.97
2018-03-24T21:10:27.954Z,16.94
2018-03-24T21:12:53.771Z,17.01
2018-03-24T21:15:19.587Z,17.02
2018-03-24T21:17:45.400Z,16.95
2018-03-24T21:20:12.062Z,17.01
2018-03-24T21:22:37.873Z,17.03
2018-03-24T21:25:03.692Z,17.07
2018-03-24T21:27:29.506Z,17.07
2018-03-24T21:29:55.346Z,17.03
2018-03-24T21:32:22.146Z,17.17
2018-03-24T21:34:47.954Z,17.15
2018-03-24T21:37:13.762Z,17.17
2018-03-24T21:39:39.576Z,17.08
2018-03-24T21:42:06.294Z,16.94
2018-03-24T21:44:32.977Z,16.98
2018-03-24T21:46:59.711Z,17.02
2018-03-24T21:49:25.551Z,17.04
2018-03-24T21:51:51.358Z,17.06
2018-03-24T21:54:17.201Z,16.84
2018-03-24T21:56:43.008Z,16.88
2018-03-24T21:59:09.684Z,16.83
2018-03-24T22:01:35.531Z,16.81
2018-03-24T22:04:01.377Z,16.86
2018-03-24T22:06:27.178Z,16.96
2018-03-24T22:08:52.991Z,16.97
2018-03-24T22:11:18.828Z,16.95
2018-03-24T22:13:44.629Z,16.92
2018-03-24T22:16:10.448Z,16.94
2018-03-24T22:18:36.273Z,16.80
2018-03-24T22:21:02.078Z,16.79
2018-03-24T22:23:27.922Z,16.80
2018-03-24T22:25:53.723Z,16.96
2018-03-24T22:28:19.539Z,16.92
2018-03-24T22:30:46.185Z,16.82
2018-03-24T22:33:12.902Z,16.72
2018-03-24T22:35:39.676Z,16.77
2018-03-24T22:38:06.465Z,16.81
2018-03-24T22:40:32.273Z,16.84
2018-03-24T22:42:58.078Z,16.70
2018-03-24T22:45:23.887Z,16.81
2018-03-24T22:47:49.692Z,16.71
2018-03-24T22:50:15.502Z,16.66
2018-03-24T22:52:42.138Z,16.72
2018-03-24T22:55:08.911Z,16.82
2018-03-24T22:57:34.728Z,16.81
2018-03-24T23:00:00.529Z,16.79
2018-03-24T23:02:26.338Z,16.90
2018-03-24T23:04:52.147Z,16.75
2018-03-24T23:07:17.994Z,16.67
2018-03-24T23:09:43.806Z,16.69
2018-03-24T23:12:09.634Z,16.74
2018-03-24T23:14:35.461Z,16.65
2018-03-24T23:17:01.277Z,16.74
2018-03-24T23:19:27.077Z,16.76
2018-03-24T23:21:52.903Z,16.83
2018-03-24T23:24:18.709Z,16.84
2018-03-24T23:26:45.419Z,16.80
2018-03-24T23:29:11.229Z,16.78
2018-03-24T23:31:37.879Z,16.82
2018-03-24T23:34:03.713Z,16.82
2018-03-24T23:36:30.486Z,16.81
2018-03-24T23:38:56.298Z,16.86
2018-03-24T23:41:22.123Z,16.84
2018-03-24T23:43:47.919Z,16.80
2018-03-24T23:46:13.719Z,16.72
2018-03-24T23:48:39.538Z,16.64
2018-03-24T23:51:05.346Z,16.65
2018-03-24T23:53:31.149Z,16.71
2018-03-24T23:55:56.966Z,16.56
2018-03-24T23:58:22.767Z,16.78
